Time;durP1;ratioP1;P1;durP2;ratioP2;P2;SDS_P1;SDS_P2;PMS_P1;PMS_P2;Temp;Humidity;BMP_temperature;BMP_pressure;BME280_temperature;BME280_humidity;BME280_pressure;Samples;Min_cycle;Max_cycle;Signal;HPM_P1;HPM_P2
2023/01/26 00:00:45;;;;;;;7.63;3.50;;;;;;;5.87;63.83;99848.91;5094958;28;20664;-90
2023/01/26 00:03:10;;;;;;;9.37;3.60;;;;;;;5.93;64.00;99845.31;5111580;28;20186;-91
2023/01/26 00:05:36;;;;;;;9.33;3.03;;;;;;;5.88;63.71;99862.78;5093378;28;20175;-91
2023/01/26 00:08:02;;;;;;;7.30;3.73;;;;;;;5.89;63.78;99862.75;5094425;28;20200;-90
2023/01/26 00:10:27;;;;;;;10.33;4.13;;;;;;;5.92;64.37;99867.03;5111830;28;20223;-91
2023/01/26 00:12:53;;;;;;;13.07;3.43;;;;;;;5.98;64.62;99862.53;5094285;28;20525;-91
2023/01/26 00:15:18;;;;;;;8.87;2.93;;;;;;;6.00;64.52;99863.34;5095148;28;20168;-91
2023/01/26 00:17:44;;;;;;;10.20;4.90;;;;;;;6.04;64.56;99866.75;5094853;28;20177;-91
2023/01/26 00:20:09;;;;;;;6.93;3.60;;;;;;;6.11;64.48;99858.78;5093743;28;20208;-90
2023/01/26 00:22:35;;;;;;;7.10;3.57;;;;;;;6.14;64.28;99857.84;5094530;28;20663;-90
2023/01/26 00:25:00;;;;;;;10.43;3.80;;;;;;;6.20;63.83;99855.09;5094851;28;20672;-91
2023/01/26 00:27:26;;;;;;;8.03;3.47;;;;;;;6.25;63.98;99845.44;5093648;28;20176;-90
2023/01/26 00:29:51;;;;;;;6.30;3.00;;;;;;;6.31;63.50;99840.09;5110450;28;20196;-90
2023/01/26 00:32:17;;;;;;;10.17;4.33;;;;;;;6.41;63.48;99841.56;5094743;28;20247;-91
2023/01/26 00:34:42;;;;;;;8.83;3.37;;;;;;;6.41;63.22;99845.91;5094716;28;20173;-90
2023/01/26 00:37:07;;;;;;;12.77;4.67;;;;;;;6.35;63.72;99839.13;5094408;28;20192;-90
2023/01/26 00:39:33;;;;;;;10.03;3.80;;;;;;;6.38;63.78;99832.97;5093733;28;20259;-90
2023/01/26 00:42:12;;;;;;;6.27;3.17;;;;;;;6.45;63.67;99830.19;5093614;28;20168;-91
2023/01/26 00:44:39;;;;;;;9.60;3.90;;;;;;;6.54;63.22;99816.06;5093833;28;20237;-91
2023/01/26 00:47:06;;;;;;;6.23;3.40;;;;;;;6.56;62.26;99804.72;5110658;28;20176;-91
2023/01/26 00:49:32;;;;;;;8.50;3.27;;;;;;;6.49;62.78;99797.97;5094015;28;20727;-91
2023/01/26 00:51:58;;;;;;;9.37;3.77;;;;;;;6.50;62.98;99804.88;5093466;28;20207;-91
2023/01/26 00:54:24;;;;;;;12.47;3.57;;;;;;;6.50;62.95;99804.88;5094164;28;20176;-91
2023/01/26 00:56:49;;;;;;;5.37;3.03;;;;;;;6.41;62.87;99805.13;5094129;28;20179;-90
2023/01/26 00:59:15;;;;;;;8.27;3.70;;;;;;;6.33;63.38;99803.59;5094013;28;20610;-91
2023/01/26 01:01:40;;;;;;;8.40;3.40;;;;;;;6.30;62.89;99812.34;5092968;28;20176;-91
2023/01/26 01:04:05;;;;;;;7.30;2.43;;;;;;;6.28;63.21;99814.13;5093914;28;20183;-90
2023/01/26 01:06:31;;;;;;;6.53;2.87;;;;;;;6.38;63.32;99805.19;5109974;28;20181;-91
2023/01/26 01:08:56;;;;;;;10.60;4.60;;;;;;;6.40;63.31;99798.19;5094059;28;20281;-91
2023/01/26 01:11:22;;;;;;;8.43;4.03;;;;;;;6.34;63.25;99795.72;5094121;28;20259;-91
2023/01/26 01:13:47;;;;;;;7.07;3.60;;;;;;;6.26;63.12;99784.69;5092873;28;20178;-90
2023/01/26 01:16:15;;;;;;;10.50;3.87;;;;;;;6.25;63.14;99792.50;5092682;28;20187;-90
2023/01/26 01:18:41;;;;;;;8.87;4.27;;;;;;;6.15;63.63;99787.56;5094026;28;20182;-90
2023/01/26 01:21:09;;;;;;;10.53;3.47;;;;;;;6.20;63.62;99782.22;5109908;28;20277;-91
2023/01/26 01:23:35;;;;;;;8.37;3.57;;;;;;;6.20;63.88;99790.03;5094147;28;20178;-91
2023/01/26 01:26:01;;;;;;;7.03;3.37;;;;;;;6.23;63.61;99795.16;5094115;28;20207;-90
2023/01/26 01:28:27;;;;;;;10.23;4.83;;;;;;;6.25;63.59;99793.38;5093453;28;20201;-91
2023/01/26 01:30:53;;;;;;;7.43;3.43;;;;;;;6.15;64.26;99789.28;5109453;28;20352;-91
2023/01/26 01:33:18;;;;;;;7.77;3.17;;;;;;;6.23;63.76;99802.13;5093506;28;20756;-91
2023/01/26 01:35:55;;;;;;;7.97;3.13;;;;;;;6.21;64.55;99796.94;5093520;28;20187;-91
2023/01/26 01:38:20;;;;;;;8.47;3.33;;;;;;;6.26;64.70;99795.09;5092930;28;20270;-91
2023/01/26 01:40:46;;;;;;;10.40;4.00;;;;;;;6.31;64.08;99787.16;5092680;28;20267;-91
2023/01/26 01:43:11;;;;;;;7.20;3.37;;;;;;;6.34;63.80;99790.53;5093543;28;20224;-90
2023/01/26 01:45:48;;;;;;;7.57;4.20;;;;;;;6.33;64.26;99783.63;5093503;28;20203;-90
2023/01/26 01:48:24;;;;;;;9.10;3.37;;;;;;;6.41;63.95;99779.09;5093519;28;20187;-91
2023/01/26 01:50:52;;;;;;;10.10;4.10;;;;;;;6.46;63.52;99782.44;5093518;28;20160;-91
2023/01/26 01:53:25;;;;;;;8.57;3.73;;;;;;;6.52;63.13;99779.66;5092235;28;20176;-91
2023/01/26 01:55:57;;;;;;;7.10;4.07;;;;;;;6.57;62.86;99780.41;5093504;28;20168;-91
2023/01/26 01:58:23;;;;;;;7.47;3.93;;;;;;;6.60;63.00;99785.50;5093686;28;20602;-91
2023/01/26 02:00:49;;;;;;;13.00;4.63;;;;;;;6.62;62.51;99778.53;5109153;28;20179;-91
2023/01/26 02:03:19;;;;;;;8.60;3.90;;;;;;;6.63;62.35;99775.00;5093313;28;20168;-91
2023/01/26 02:06:00;;;;;;;9.97;3.50;;;;;;;6.57;62.72;99777.81;5093175;28;20153;-91
2023/01/26 02:08:39;;;;;;;8.00;4.00;;;;;;;6.63;62.56;99767.19;5093215;28;20275;-91
2023/01/26 02:11:15;;;;;;;10.07;3.73;;;;;;;6.70;61.69;99765.28;5093337;28;20306;-91
2023/01/26 02:13:42;;;;;;;7.43;3.60;;;;;;;6.73;61.62;99760.00;5093330;28;20163;-90
2023/01/26 02:16:08;;;;;;;9.03;3.80;;;;;;;6.65;61.38;99762.81;5093031;28;20183;-91
2023/01/26 02:18:34;;;;;;;8.40;3.53;;;;;;;6.62;61.12;99768.13;5093242;28;20172;-91
2023/01/26 02:21:01;;;;;;;12.40;4.10;;;;;;;6.64;61.14;99766.31;5092966;28;20176;-91
2023/01/26 02:23:42;;;;;;;8.27;3.57;;;;;;;6.58;61.00;99760.41;5092926;28;20184;-90
2023/01/26 02:26:15;;;;;;;9.97;3.70;;;;;;;6.58;61.18;99745.63;5091888;28;20562;-91
2023/01/26 02:28:42;;;;;;;7.87;3.03;;;;;;;6.54;61.95;99732.75;5094390;28;20200;-91
2023/01/26 02:31:09;;;;;;;6.97;2.80;;;;;;;6.41;62.19;99731.34;5096332;28;20245;-90
2023/01/26 02:33:35;;;;;;;11.83;3.37;;;;;;;6.39;62.16;99734.00;5113168;28;20236;-91
2023/01/26 02:36:01;;;;;;;11.27;3.60;;;;;;;6.30;62.51;99739.44;5096247;28;20179;-91
2023/01/26 02:38:41;;;;;;;8.77;3.70;;;;;;;6.29;63.15;99735.13;5096132;28;20210;-91
2023/01/26 02:41:10;;;;;;;7.77;2.77;;;;;;;6.27;63.57;99731.72;5096690;28;20172;-91
2023/01/26 02:43:36;;;;;;;11.43;4.23;;;;;;;6.31;63.18;99715.13;5096800;28;20173;-91
2023/01/26 02:46:01;;;;;;;6.03;3.20;;;;;;;6.35;62.45;99714.16;5095701;28;20509;-91
2023/01/26 02:51:12;;;;;;;8.77;2.93;;;;;;;6.28;62.85;99706.53;5097299;28;20301;-91
2023/01/26 02:53:37;;;;;;;6.83;3.37;;;;;;;6.14;63.37;99707.75;5096541;28;20190;-91
2023/01/26 02:56:03;;;;;;;7.90;3.23;;;;;;;6.19;63.69;99708.47;5096727;28;20179;-91
2023/01/26 02:58:28;;;;;;;8.23;3.40;;;;;;;6.34;63.45;99702.00;5096512;28;20196;-91
2023/01/26 03:00:54;;;;;;;8.80;3.43;;;;;;;6.39;62.58;99700.16;5095390;28;20172;-91
2023/01/26 03:03:40;;;;;;;5.90;3.10;;;;;;;6.45;62.33;99702.59;5096255;28;20181;-91
2023/01/26 03:06:09;;;;;;;10.33;4.47;;;;;;;6.51;61.83;99696.34;5096346;28;20160;-91
2023/01/26 03:08:35;;;;;;;9.20;3.50;;;;;;;6.42;62.25;99707.88;5096118;28;20212;-90
2023/01/26 03:11:00;;;;;;;10.57;3.77;;;;;;;6.44;62.60;99708.69;5095156;28;20180;-90
2023/01/26 03:13:26;;;;;;;7.67;3.50;;;;;;;6.42;62.98;99705.25;5096131;28;20619;-91
2023/01/26 03:15:53;;;;;;;7.30;3.30;;;;;;;6.46;63.31;99701.69;5096052;28;20233;-90
2023/01/26 03:29:22;;;;;;;7.57;3.50;;;;;;;6.72;61.40;99680.13;5096026;28;20296;-91
2023/01/26 03:31:48;;;;;;;5.47;2.70;;;;;;;6.60;61.98;99677.88;5096111;28;20177;-90
2023/01/26 03:34:14;;;;;;;7.73;3.53;;;;;;;6.51;62.20;99681.59;5095717;28;20168;-91
2023/01/26 03:36:39;;;;;;;7.83;3.70;;;;;;;6.51;62.50;99673.78;5095575;28;20585;-91
2023/01/26 03:39:05;;;;;;;5.47;2.80;;;;;;;6.64;61.90;99667.34;5112651;28;20172;-90
2023/01/26 03:57:54;;;;;;;7.43;3.63;;;;;;;6.51;62.49;99626.03;5095922;28;20166;-91
2023/01/26 04:00:20;;;;;;;8.07;4.10;;;;;;;6.59;62.50;99624.94;5095485;28;20255;-91
2023/01/26 04:08:23;;;;;;;7.53;2.50;;;;;;;6.54;62.26;99625.97;5095560;28;20249;-91
2023/01/26 04:10:52;;;;;;;8.50;3.07;;;;;;;6.59;62.08;99614.53;5095673;28;20171;-91
2023/01/26 04:21:33;;;;;;;8.73;4.10;;;;;;;6.50;61.03;99627.78;5094889;28;20175;-91
2023/01/26 04:24:00;;;;;;;10.97;4.57;;;;;;;6.45;62.16;99629.66;5095076;28;20186;-91
2023/01/26 04:26:33;;;;;;;7.63;3.37;;;;;;;6.45;62.09;99629.66;5094743;28;20196;-91
2023/01/26 04:29:10;;;;;;;10.77;4.07;;;;;;;6.45;62.75;99632.28;5093655;28;20210;-91
2023/01/26 04:31:37;;;;;;;8.60;3.57;;;;;;;6.49;62.52;99630.44;5095325;28;20559;-91
2023/01/26 04:34:04;;;;;;;9.30;2.90;;;;;;;6.42;62.70;99628.94;5110987;28;20168;-90
2023/01/26 04:36:30;;;;;;;9.47;3.47;;;;;;;6.41;62.57;99622.00;5093726;28;20214;-90
2023/01/26 04:38:56;;;;;;;5.90;2.70;;;;;;;6.51;62.30;99623.44;5093514;28;20153;-90
2023/01/26 04:41:22;;;;;;;8.83;3.67;;;;;;;6.55;61.92;99625.91;5094684;28;20251;-91
2023/01/26 04:43:47;;;;;;;7.10;3.47;;;;;;;6.50;61.91;99633.00;5094366;28;20662;-90
2023/01/26 04:46:13;;;;;;;10.07;3.50;;;;;;;6.50;62.17;99617.38;5094800;28;20183;-90
2023/01/26 04:48:39;;;;;;;9.20;3.87;;;;;;;6.54;61.78;99619.00;5094218;28;20200;-91
2023/01/26 04:51:07;;;;;;;7.77;3.90;;;;;;;6.64;61.38;99610.03;5092875;28;20180;-91
2023/01/26 04:53:33;;;;;;;8.20;3.73;;;;;;;6.72;60.38;99608.06;5094325;28;20566;-90
2023/01/26 04:55:59;;;;;;;6.60;3.33;;;;;;;6.67;60.84;99603.88;5094446;28;20172;-91
2023/01/26 04:58:25;;;;;;;7.90;3.23;;;;;;;6.67;60.82;99593.47;5093280;28;20180;-91
2023/01/26 05:00:52;;;;;;;7.37;3.17;;;;;;;6.64;60.54;99588.34;5094119;28;20168;-91
2023/01/26 05:03:17;;;;;;;7.67;3.23;;;;;;;6.57;60.69;99586.81;5094033;28;20203;-90
2023/01/26 05:05:43;;;;;;;10.07;4.07;;;;;;;6.51;60.66;99593.06;5110102;28;20235;-90
2023/01/26 05:08:09;;;;;;;8.07;3.63;;;;;;;6.39;61.27;99598.63;5093883;28;20736;-91
2023/01/26 05:10:34;;;;;;;7.37;3.43;;;;;;;6.38;61.45;99601.25;5093868;28;20176;-91
2023/01/26 05:13:00;;;;;;;8.10;3.83;;;;;;;6.32;62.15;99596.22;5094415;28;20179;-90
2023/01/26 05:15:25;;;;;;;10.97;3.93;;;;;;;6.30;62.63;99598.88;5093795;28;20171;-90
2023/01/26 05:17:51;;;;;;;6.93;3.67;;;;;;;6.36;62.13;99600.44;5094012;28;20168;-91
2023/01/26 05:20:16;;;;;;;9.27;4.23;;;;;;;6.32;62.46;99596.22;5092755;28;20188;-90
2023/01/26 05:22:42;;;;;;;12.03;3.53;;;;;;;6.31;62.82;99592.78;5093748;28;20260;-90
2023/01/26 05:25:08;;;;;;;11.73;4.20;;;;;;;6.30;63.56;99604.06;5093535;28;20666;-91
2023/01/26 05:27:34;;;;;;;7.23;3.93;;;;;;;6.40;62.90;99595.09;5093931;28;20199;-91
2023/01/26 05:29:59;;;;;;;7.60;3.70;;;;;;;6.41;63.01;99583.81;5093459;28;20662;-90
2023/01/26 05:32:29;;;;;;;14.60;4.93;;;;;;;6.43;62.74;99584.59;5081599;28;20215;-90
2023/01/26 05:34:55;;;;;;;8.60;4.07;;;;;;;6.44;63.38;99581.13;5071773;28;20527;-90
2023/01/26 05:37:23;;;;;;;10.87;4.63;;;;;;;6.48;62.74;99579.25;5071399;28;20189;-90
2023/01/26 05:39:49;;;;;;;7.33;3.93;;;;;;;6.56;62.62;99577.28;5073123;28;20180;-90
2023/01/26 05:42:15;;;;;;;8.77;3.67;;;;;;;6.42;63.02;99597.69;5072801;28;20201;-90
2023/01/26 05:44:41;;;;;;;8.67;4.20;;;;;;;6.37;63.61;99589.97;5072231;28;20541;-90
2023/01/26 05:47:06;;;;;;;10.97;3.37;;;;;;;6.46;63.33;99579.31;5073546;28;20179;-91
2023/01/26 05:49:32;;;;;;;13.47;4.27;;;;;;;6.32;63.96;99580.59;5071932;28;20215;-92
2023/01/26 05:51:57;;;;;;;8.43;3.40;;;;;;;6.24;64.23;99578.19;5073055;28;20181;-91
2023/01/26 05:54:23;;;;;;;11.20;3.60;;;;;;;6.33;64.23;99580.56;5073585;28;20191;-92
2023/01/26 05:56:49;;;;;;;8.53;4.03;;;;;;;6.29;64.78;99586.72;5072233;28;20600;-91
2023/01/26 05:59:15;;;;;;;9.30;4.10;;;;;;;6.37;64.91;99578.75;5072927;28;20620;-91
2023/01/26 06:01:40;;;;;;;17.40;4.77;;;;;;;6.26;65.37;99584.25;5073190;28;20238;-92
2023/01/26 06:04:06;;;;;;;8.73;3.47;;;;;;;6.31;65.44;99579.75;5072445;28;20188;-91
2023/01/26 06:06:31;;;;;;;8.77;4.23;;;;;;;6.16;65.63;99581.03;5072738;28;20172;-91
2023/01/26 06:08:58;;;;;;;10.93;4.53;;;;;;;6.15;65.93;99588.88;5072649;28;20290;-91
2023/01/26 06:11:24;;;;;;;9.00;3.47;;;;;;;6.15;66.20;99594.94;5072764;28;20631;-90
2023/01/26 06:13:49;;;;;;;10.73;4.57;;;;;;;6.14;66.97;99587.16;5072695;28;20176;-90
2023/01/26 06:16:15;;;;;;;9.30;3.97;;;;;;;6.14;66.98;99585.44;5072978;28;20570;-91
2023/01/26 06:18:40;;;;;;;14.53;4.47;;;;;;;6.25;66.55;99589.47;5071654;28;20199;-90
2023/01/26 06:21:06;;;;;;;11.90;4.87;;;;;;;6.36;66.68;99582.22;5072877;28;20750;-90
2023/01/26 06:23:32;;;;;;;9.00;4.43;;;;;;;6.33;66.02;99577.09;5071592;28;20180;-90
2023/01/26 06:26:00;;;;;;;10.37;4.90;;;;;;;6.35;66.55;99576.16;5071869;28;20195;-90
2023/01/26 06:28:27;;;;;;;10.63;4.73;;;;;;;6.33;66.33;99577.97;5072700;28;20283;-90
2023/01/26 06:31:00;;;;;;;7.50;3.97;;;;;;;6.35;66.85;99572.69;5072852;28;20517;-90
2023/01/26 06:33:25;;;;;;;10.77;4.60;;;;;;;6.37;67.02;99574.34;5071850;28;20177;-90
2023/01/26 06:35:53;;;;;;;9.87;3.97;;;;;;;6.24;67.25;99575.59;5071811;28;20183;-90
2023/01/26 06:38:19;;;;;;;9.83;4.13;;;;;;;6.26;66.96;99575.56;5071351;28;20290;-90
2023/01/26 06:40:44;;;;;;;7.67;3.97;;;;;;;6.14;67.49;99577.63;5071895;28;20601;-91
2023/01/26 06:43:09;;;;;;;6.97;3.37;;;;;;;6.20;67.95;99571.41;5071488;28;20397;-90
2023/01/26 06:45:35;;;;;;;7.97;3.70;;;;;;;6.31;67.51;99577.16;5071678;28;20241;-91
2023/01/26 06:48:00;;;;;;;9.73;4.73;;;;;;;6.29;67.54;99565.91;5071561;28;20214;-90
2023/01/26 06:50:31;;;;;;;9.63;3.90;;;;;;;6.32;67.61;99571.03;5072185;28;20169;-90
2023/01/26 06:52:59;;;;;;;12.73;4.90;;;;;;;6.34;67.53;99560.59;5072472;28;20165;-90
2023/01/26 06:55:43;;;;;;;15.30;4.50;;;;;;;6.35;67.70;99559.69;5071296;28;20177;-90
2023/01/26 06:58:10;;;;;;;32.70;10.03;;;;;;;6.31;68.50;99558.94;5072907;28;20175;-90
2023/01/26 07:00:38;;;;;;;29.53;10.47;;;;;;;6.29;68.74;99547.69;5072280;28;20311;-90
2023/01/26 07:03:03;;;;;;;19.80;7.87;;;;;;;6.25;68.88;99540.03;5072055;28;20176;-90
2023/01/26 07:05:29;;;;;;;9.57;5.23;;;;;;;6.25;69.19;99533.06;5071975;28;20175;-90
2023/01/26 07:07:54;;;;;;;9.53;5.17;;;;;;;6.27;69.53;99526.06;5071102;28;20175;-90
2023/01/26 07:10:20;;;;;;;11.67;4.60;;;;;;;6.10;69.22;99525.72;5071451;28;20175;-90
2023/01/26 07:12:45;;;;;;;11.03;5.27;;;;;;;5.92;70.58;99521.03;5071395;28;20199;-90
2023/01/26 07:15:12;;;;;;;6.83;3.17;;;;;;;5.94;70.27;99516.63;5074436;28;20244;-90
2023/01/26 07:17:38;;;;;;;8.97;4.43;;;;;;;5.82;70.91;99507.34;5076189;28;20169;-90
2023/01/26 07:20:05;;;;;;;10.00;4.53;;;;;;;5.97;71.34;99501.78;5074657;28;20260;-90
2023/01/26 07:22:30;;;;;;;14.23;4.67;;;;;;;5.97;70.82;99503.53;5074616;28;20324;-90
2023/01/26 07:24:56;;;;;;;16.77;6.50;;;;;;;6.03;71.04;99493.78;5074574;28;20634;-90
2023/01/26 07:27:21;;;;;;;11.77;5.73;;;;;;;5.82;71.64;99494.34;5074792;28;20221;-90
2023/01/26 07:29:47;;;;;;;14.23;5.03;;;;;;;5.88;71.80;99485.56;5074421;28;20210;-90
2023/01/26 07:32:12;;;;;;;12.87;4.77;;;;;;;6.03;71.97;99477.31;5074410;28;20239;-90
2023/01/26 07:34:37;;;;;;;8.97;3.67;;;;;;;6.00;71.96;99469.63;5074423;28;20180;-90
2023/01/26 07:37:04;;;;;;;11.10;4.57;;;;;;;6.01;71.63;99471.31;5075337;28;20648;-90
2023/01/26 07:39:30;;;;;;;19.50;4.33;;;;;;;5.97;71.67;99470.56;5074307;28;20177;-90
2023/01/26 07:41:55;;;;;;;9.73;4.43;;;;;;;5.94;71.83;99482.78;5074208;28;20612;-90
2023/01/26 07:44:21;;;;;;;7.47;3.70;;;;;;;5.87;72.11;99483.88;5074847;28;20178;-90
2023/01/26 07:46:46;;;;;;;14.57;5.77;;;;;;;5.81;72.40;99495.28;5074991;28;20182;-91
2023/01/26 07:49:11;;;;;;;12.90;4.50;;;;;;;5.80;71.84;99503.94;5074993;28;20192;-90
2023/01/26 07:51:38;;;;;;;17.00;4.93;;;;;;;5.85;72.48;99519.47;5074055;28;20240;-90
2023/01/26 07:54:04;;;;;;;16.63;5.87;;;;;;;5.95;72.20;99518.31;5075290;28;20186;-90
2023/01/26 07:56:30;;;;;;;14.60;5.43;;;;;;;5.98;73.15;99520.81;5073988;28;20180;-91
2023/01/26 07:58:56;;;;;;;12.80;5.20;;;;;;;6.08;72.57;99519.66;5074267;28;20230;-90
2023/01/26 08:01:22;;;;;;;13.77;4.23;;;;;;;6.08;72.84;99515.31;5075712;28;20172;-90
2023/01/26 08:03:52;;;;;;;12.57;4.90;;;;;;;6.19;73.06;99521.09;5073896;28;20226;-90
2023/01/26 08:06:18;;;;;;;12.30;4.40;;;;;;;6.26;72.61;99526.97;5074893;28;20181;-90
2023/01/26 08:08:49;;;;;;;14.23;5.07;;;;;;;6.32;72.56;99529.38;5074412;28;20205;-90
2023/01/26 08:11:17;;;;;;;9.87;4.60;;;;;;;6.40;72.51;99522.19;5073756;28;20165;-90
2023/01/26 08:13:42;;;;;;;18.77;6.53;;;;;;;6.54;71.98;99512.25;5075485;28;20173;-90
2023/01/26 08:16:10;;;;;;;17.93;6.40;;;;;;;6.60;71.60;99509.44;5074654;28;20184;-90
2023/01/26 08:18:37;;;;;;;12.77;4.77;;;;;;;6.61;71.56;99503.31;5073868;28;20181;-90
2023/01/26 08:21:03;;;;;;;12.57;4.77;;;;;;;6.75;70.86;99497.69;5075049;28;20566;-90
2023/01/26 08:23:29;;;;;;;14.73;4.90;;;;;;;6.81;70.60;99498.34;5075069;28;20188;-90
2023/01/26 08:25:54;;;;;;;13.60;5.37;;;;;;;6.85;70.62;99495.63;5073757;28;20196;-90
2023/01/26 08:28:20;;;;;;;12.23;5.03;;;;;;;6.90;70.25;99491.13;5073538;28;20196;-90
2023/01/26 08:30:46;;;;;;;10.63;4.80;;;;;;;6.92;69.33;99484.16;5073855;28;20165;-90
2023/01/26 08:33:11;;;;;;;14.63;5.53;;;;;;;6.94;68.66;99482.34;5073249;28;20177;-90
2023/01/26 08:35:37;;;;;;;12.47;5.83;;;;;;;6.91;68.30;99479.81;5073513;28;20310;-90
2023/01/26 08:38:02;;;;;;;14.27;4.23;;;;;;;6.82;68.65;99473.16;5075118;28;20188;-91
2023/01/26 08:40:28;;;;;;;10.40;5.60;;;;;;;6.90;69.25;99463.34;5074955;28;20176;-90
2023/01/26 08:42:53;;;;;;;12.77;5.63;;;;;;;6.90;68.70;99452.91;5073090;28;20192;-90
2023/01/26 08:45:19;;;;;;;14.10;5.23;;;;;;;6.89;69.20;99448.63;5073405;28;20176;-90
2023/01/26 08:47:48;;;;;;;11.67;5.10;;;;;;;6.90;69.22;99433.81;5072957;28;20181;-90
2023/01/26 08:50:13;;;;;;;12.60;5.57;;;;;;;6.80;69.31;99434.13;5072892;28;20280;-90
2023/01/26 08:52:39;;;;;;;11.23;4.50;;;;;;;6.67;69.65;99431.97;5073732;28;20188;-90
2023/01/26 08:55:04;;;;;;;11.93;5.37;;;;;;;6.61;69.52;99435.63;5073595;28;20532;-90
2023/01/26 08:57:30;;;;;;;12.30;5.43;;;;;;;6.53;69.75;99429.78;5073701;28;20239;-90
2023/01/26 08:59:55;;;;;;;13.73;5.23;;;;;;;6.52;70.48;99435.06;5072706;28;20238;-90
2023/01/26 09:02:21;;;;;;;10.00;4.40;;;;;;;6.67;70.47;99435.44;5072671;28;20223;-90
2023/01/26 09:04:46;;;;;;;12.50;4.03;;;;;;;6.68;70.80;99426.69;5072887;28;20516;-90
2023/01/26 09:07:12;;;;;;;8.57;4.20;;;;;;;6.75;70.30;99429.97;5073839;28;20259;-90
2023/01/26 09:09:37;;;;;;;12.97;5.30;;;;;;;6.79;69.99;99422.00;5072751;28;20556;-90
2023/01/26 09:12:03;;;;;;;13.90;5.13;;;;;;;6.87;70.31;99416.53;5072493;28;20184;-90
2023/01/26 09:14:29;;;;;;;14.70;5.90;;;;;;;6.86;69.67;99412.25;5072745;28;20172;-90
2023/01/26 09:16:54;;;;;;;9.97;4.40;;;;;;;6.85;70.51;99409.66;5073679;28;20177;-90
2023/01/26 09:19:20;;;;;;;10.47;5.03;;;;;;;6.94;70.04;99411.97;5072396;28;20623;-91
2023/01/26 09:21:45;;;;;;;13.20;4.87;;;;;;;7.01;70.00;99405.66;5072427;28;20177;-90
2023/01/26 09:24:11;;;;;;;11.60;5.27;;;;;;;6.98;69.14;99395.31;5072314;28;20483;-90
2023/01/26 09:26:36;;;;;;;15.37;5.77;;;;;;;6.97;69.59;99398.84;5072296;28;20260;-90
2023/01/26 09:29:02;;;;;;;12.03;6.00;;;;;;;7.09;69.37;99396.66;5072511;28;20219;-90
2023/01/26 09:31:28;;;;;;;12.67;6.10;;;;;;;7.03;69.67;99394.25;5073519;28;20234;-91
2023/01/26 09:33:53;;;;;;;15.77;6.13;;;;;;;7.12;69.28;99390.50;5072228;28;20629;-91
2023/01/26 09:36:19;;;;;;;12.07;5.90;;;;;;;7.08;69.74;99387.13;5072002;28;20185;-90
2023/01/26 09:38:44;;;;;;;13.30;5.97;;;;;;;7.10;69.21;99379.28;5072094;28;20609;-91
2023/01/26 09:41:10;;;;;;;12.10;6.33;;;;;;;7.04;69.28;99376.88;5072218;28;20169;-90
2023/01/26 09:43:56;;;;;;;17.37;7.17;;;;;;;7.09;69.62;99362.78;5073097;28;20204;-91
2023/01/26 09:46:26;;;;;;;13.50;6.27;;;;;;;7.06;68.51;99352.47;5073448;28;20161;-90
2023/01/26 09:48:58;;;;;;;24.17;9.27;;;;;;;7.06;69.34;99341.19;5072115;28;20220;-90
2023/01/26 09:51:33;;;;;;;32.83;13.40;;;;;;;7.06;68.64;99336.81;5072123;28;20294;-91
2023/01/26 09:54:34;;;;;;;20.93;8.33;;;;;;;7.04;69.36;99328.22;5073134;28;20168;-90
2023/01/26 09:57:09;;;;;;;15.57;6.57;;;;;;;7.12;68.40;99320.97;5072069;28;20562;-91
2023/01/26 09:59:54;;;;;;;18.13;8.00;;;;;;;7.12;68.51;99322.72;5072213;28;20167;-91
2023/01/26 10:02:34;;;;;;;17.97;5.80;;;;;;;7.03;68.29;99305.66;5073045;28;20176;-91
2023/01/26 10:05:06;;;;;;;9.87;4.50;;;;;;;6.97;68.78;99305.03;5073341;28;20161;-91
2023/01/26 10:07:32;;;;;;;12.03;5.00;;;;;;;6.88;68.98;99303.59;5073060;28;20165;-91
2023/01/26 10:09:58;;;;;;;8.23;4.07;;;;;;;6.88;69.48;99295.78;5071958;28;20200;-90
2023/01/26 10:12:29;;;;;;;10.87;5.43;;;;;;;6.74;69.23;99305.81;5072960;28;20254;-91
2023/01/26 10:15:00;;;;;;;15.87;6.27;;;;;;;6.68;69.95;99304.28;5073252;28;20161;-91
2023/01/26 10:17:34;;;;;;;12.10;6.30;;;;;;;6.71;70.23;99301.56;5073006;28;20161;-90
2023/01/26 10:20:16;;;;;;;13.37;5.13;;;;;;;6.71;69.79;99298.09;5072948;28;20226;-91
2023/01/26 10:22:48;;;;;;;14.40;5.43;;;;;;;6.70;70.00;99280.78;5073277;28;20165;-90
2023/01/26 10:25:17;;;;;;;11.97;5.43;;;;;;;6.69;69.31;99274.72;5072909;28;20253;-91
2023/01/26 10:27:44;;;;;;;14.13;5.77;;;;;;;6.68;70.25;99265.19;5073099;28;20256;-90
2023/01/26 10:30:15;;;;;;;13.50;6.93;;;;;;;6.66;69.89;99261.81;5073324;28;20196;-90
2023/01/26 10:32:43;;;;;;;16.43;6.63;;;;;;;6.67;70.08;99252.25;5073112;28;20165;-91
2023/01/26 10:35:23;;;;;;;12.43;6.60;;;;;;;6.54;70.35;99246.63;5072108;28;20255;-91
2023/01/26 10:37:51;;;;;;;13.60;6.30;;;;;;;6.44;71.37;99250.44;5071629;28;20198;-91
2023/01/26 10:40:18;;;;;;;13.50;5.97;;;;;;;6.36;71.52;99254.19;5072689;28;20178;-90
2023/01/26 10:42:55;;;;;;;9.77;5.70;;;;;;;6.28;71.70;99251.00;5072693;28;20182;-90
2023/01/26 10:45:30;;;;;;;10.83;6.10;;;;;;;6.16;72.16;99244.44;5072966;28;20166;-91
2023/01/26 10:48:14;;;;;;;14.73;6.40;;;;;;;6.26;72.45;99252.81;5072709;28;20165;-91
2023/01/26 10:50:40;;;;;;;16.73;7.23;;;;;;;6.10;73.52;99253.31;5075276;28;20266;-91
2023/01/26 10:53:05;;;;;;;17.47;5.43;;;;;;;6.13;73.88;99260.19;5076653;28;20700;-92
2023/01/26 10:55:32;;;;;;;17.67;6.07;;;;;;;5.99;74.72;99249.38;5075472;28;20212;-91
2023/01/26 10:57:59;;;;;;;11.83;5.57;;;;;;;6.10;74.67;99242.06;5076389;28;20179;-91
2023/01/26 11:00:28;;;;;;;12.90;5.23;;;;;;;6.18;74.26;99235.69;5075335;28;20202;-91
2023/01/26 11:03:12;;;;;;;9.47;4.43;;;;;;;6.25;74.39;99236.34;5075302;28;20259;-92
2023/01/26 11:05:38;;;;;;;8.97;5.13;;;;;;;6.15;74.88;99229.75;5075167;28;20517;-91
2023/01/26 11:08:33;;;;;;;13.83;6.40;;;;;;;6.27;74.39;99221.53;5076188;28;20666;-92
2023/01/26 11:10:59;;;;;;;12.10;5.23;;;;;;;6.20;74.69;99212.22;5075258;28;20182;-91
2023/01/26 11:13:25;;;;;;;12.93;5.57;;;;;;;6.00;74.58;99204.25;5076373;28;20246;-92
2023/01/26 11:16:02;;;;;;;15.77;6.07;;;;;;;5.99;75.32;99195.59;5076079;28;20181;-91
2023/01/26 11:18:30;;;;;;;10.33;5.20;;;;;;;6.05;74.75;99192.75;5076346;28;20157;-91
2023/01/26 11:21:05;;;;;;;11.13;4.67;;;;;;;6.24;74.11;99187.78;5076459;28;20207;-91
2023/01/26 11:23:46;;;;;;;11.87;4.63;;;;;;;6.25;73.54;99184.28;5075042;28;20186;-92
2023/01/26 11:26:52;;;;;;;11.97;4.80;;;;;;;6.21;73.66;99174.88;5076170;28;20161;-91
2023/01/26 11:29:32;;;;;;;9.77;4.60;;;;;;;6.11;73.39;99178.69;5076375;28;20250;-92
2023/01/26 11:32:35;;;;;;;12.33;5.03;;;;;;;6.10;73.63;99174.41;5076417;28;20160;-91
2023/01/26 11:35:28;;;;;;;11.47;5.10;;;;;;;6.04;73.85;99174.59;5075664;28;20210;-91
2023/01/26 11:38:12;;;;;;;9.83;4.70;;;;;;;5.99;74.37;99166.13;5075612;28;20198;-92
2023/01/26 11:41:23;;;;;;;8.27;3.87;;;;;;;5.87;74.64;99156.13;5074645;28;20686;-91
2023/01/26 11:44:07;;;;;;;8.83;4.37;;;;;;;5.96;74.77;99151.44;5039022;28;20196;-91
2023/01/26 11:46:51;;;;;;;10.07;3.97;;;;;;;5.89;74.90;99143.91;5074783;28;20248;-91
2023/01/26 11:49:38;;;;;;;12.43;4.57;;;;;;;5.91;74.74;99142.09;5075266;28;20610;-91
2023/01/26 11:52:25;;;;;;;8.60;3.77;;;;;;;5.73;76.81;99145.28;5075235;28;20274;-91
2023/01/26 11:54:53;;;;;;;8.53;4.57;;;;;;;5.75;76.57;99141.72;5075180;28;20600;-91
2023/01/26 11:57:45;;;;;;;8.90;4.73;;;;;;;5.87;76.23;99156.94;5075999;28;20268;-91
2023/01/26 12:00:14;;;;;;;8.60;4.47;;;;;;;5.83;76.84;99164.88;5037536;28;20199;-91
2023/01/26 12:02:42;;;;;;;7.80;3.90;;;;;;;5.91;76.58;99158.56;5074298;28;20177;-91
2023/01/26 12:05:45;;;;;;;9.37;4.07;;;;;;;5.86;76.78;99149.22;5074462;28;20181;-91
2023/01/26 12:08:28;;;;;;;10.27;4.50;;;;;;;5.82;77.10;99147.56;5074098;28;20485;-91
2023/01/26 12:10:56;;;;;;;9.17;4.90;;;;;;;5.86;76.76;99139.66;5075622;28;20168;-91
2023/01/26 12:13:39;;;;;;;10.97;4.93;;;;;;;6.05;76.06;99132.09;5074311;28;20188;-91
2023/01/26 12:16:17;;;;;;;8.50;3.90;;;;;;;6.25;75.04;99132.22;5074026;28;20326;-92
2023/01/26 12:19:20;;;;;;;14.00;4.60;;;;;;;6.33;73.87;99122.41;5074757;28;20534;-91
2023/01/26 12:21:48;;;;;;;10.93;4.90;;;;;;;6.31;73.78;99111.22;5075327;28;20179;-91
2023/01/26 12:24:19;;;;;;;9.43;4.37;;;;;;;6.28;73.63;99106.09;5074717;28;20274;-92
2023/01/26 12:26:48;;;;;;;11.63;5.07;;;;;;;6.36;73.58;99104.09;5075373;28;20168;-91
2023/01/26 12:29:16;;;;;;;9.93;4.37;;;;;;;6.37;73.88;99099.72;5074903;28;20197;-91